KCQF

H L Sonny Callahan Airport

Fairhope, Alabama, USA
METAR KCQF 211955Z AUTO 13007KT 10SM CLR 20/10 A3014 RMK AO2
Observed Flight Rules
Jan-21 @ 19:55 UTC (33 minutes ago) Visual Flight Rules
Wind Visibility Clouds
130° at 7 knots 10 miles
  • Clear skies
Temperatures Readings
Current 20°C / 68°F
Dewpoint 10°C / 50°F
Humidity 53%
Altimeter 30.14" Hg
Pressure 1021 hPa
Elevation 28
METAR KCQF 211955Z AUTO 13007KT 10SM CLR 20/10 A3014 RMK AO2
Observed Flight Rules
Jan-21 @ 19:55 UTC
(33 minutes ago)
VFR
Wind Visibility
130° at 7 knots 10 miles
Clouds
  • Clear skies
Temperature Dewpoint
20°C / 68°F 10°C / 50°F
Humidity Altimeter Pressure
53% 30.14" Hg 1021 hPa